Time;durP1;ratioP1;P1;durP2;ratioP2;P2;SDS_P1;SDS_P2;PMS_P1;PMS_P2;Temp;Humidity;BMP_temperature;BMP_pressure;BME280_temperature;BME280_humidity;BME280_pressure;Samples;Min_cycle;Max_cycle;Signal;HPM_P1;HPM_P2
2021/06/20 09:13:01;;;;;;;5.80;4.55;;;;;;;33.03;38.78;100293.75;1776203;75;26376;-66
2021/06/20 09:15:32;;;;;;;4.95;4.55;;;;;;;33.18;38.12;100291.13;1769042;78;25859;-65
2021/06/20 09:18:09;;;;;;;4.53;4.12;;;;;;;33.31;38.13;100286.79;1776869;78;25534;-64
2021/06/20 09:20:45;;;;;;;4.80;4.40;;;;;;;33.51;38.21;100287.72;1786761;78;25502;-68
2021/06/20 09:23:15;;;;;;;5.15;4.35;;;;;;;33.66;36.96;100282.23;1773665;78;25818;-63
2021/06/20 09:25:46;;;;;;;4.67;4.12;;;;;;;33.77;36.83;100284.60;1778211;78;27277;-65
2021/06/20 09:28:13;;;;;;;6.90;3.98;;;;;;;33.88;36.12;100287.67;1743735;80;26344;-64
2021/06/20 09:30:49;;;;;;;5.53;3.80;;;;;;;33.88;36.12;100287.67;1753606;79;26959;-64
2021/06/20 09:33:17;;;;;;;3.62;3.42;;;;;;;33.93;35.52;100278.63;1754505;78;25758;-64
2021/06/20 09:35:56;;;;;;;3.52;3.22;;;;;;;33.94;35.37;100273.17;1782866;77;25713;-66
2021/06/20 09:38:35;;;;;;;3.90;3.45;;;;;;;34.07;35.58;100274.37;1773723;78;27968;-65
2021/06/20 09:41:11;;;;;;;7.42;3.58;;;;;;;34.12;34.41;100279.34;1781354;77;25924;-66
2021/06/20 09:43:42;;;;;;;7.05;3.60;;;;;;;34.00;34.81;100272.70;1774496;77;25836;-64
2021/06/20 09:46:11;;;;;;;3.77;3.45;;;;;;;34.27;34.50;100260.47;1775339;78;26668;-64
2021/06/20 09:48:37;;;;;;;5.53;3.40;;;;;;;34.27;34.50;100260.47;1779867;77;26210;-64
2021/06/20 09:51:20;;;;;;;3.67;3.30;;;;;;;34.36;33.61;100265.42;1783458;78;27429;-67
2021/06/20 09:53:49;;;;;;;6.08;3.42;;;;;;;33.96;33.07;100255.88;1778270;78;25722;-64
2021/06/20 09:56:29;;;;;;;4.35;3.25;;;;;;;33.79;33.28;100252.02;1779511;77;25590;-64
2021/06/20 09:59:05;;;;;;;6.22;3.87;;;;;;;33.71;32.75;100254.99;1780550;77;26199;-64
2021/06/20 10:01:35;;;;;;;3.80;3.50;;;;;;;33.69;33.45;100259.66;1787329;77;25829;-65
2021/06/20 10:04:03;;;;;;;4.90;3.45;;;;;;;33.75;33.27;100256.23;1778336;78;27310;-65
2021/06/20 10:06:29;;;;;;;4.08;3.40;;;;;;;33.80;32.19;100264.80;1773017;79;25812;-65
2021/06/20 10:08:56;;;;;;;4.10;3.70;;;;;;;33.71;32.61;100264.81;1782565;78;25836;-66
2021/06/20 10:11:22;;;;;;;4.30;3.90;;;;;;;33.62;33.38;100259.20;1778448;78;25995;-66
2021/06/20 10:13:49;;;;;;;3.50;3.20;;;;;;;33.62;33.38;100259.20;1774414;77;25571;-64
2021/06/20 10:16:29;;;;;;;4.17;3.50;;;;;;;33.62;33.37;100240.34;1787390;77;27371;-66
2021/06/20 10:19:00;;;;;;;5.37;3.58;;;;;;;33.50;33.08;100237.86;1754747;78;25746;-66
2021/06/20 10:21:43;;;;;;;4.97;3.70;;;;;;;33.50;33.08;100237.86;1771297;77;25848;-65
2021/06/20 10:24:19;;;;;;;4.28;3.87;;;;;;;33.61;33.52;100238.80;1781840;78;25932;-66
2021/06/20 10:26:59;;;;;;;5.00;3.20;;;;;;;33.83;33.18;100237.83;1773851;78;25584;-67
2021/06/20 10:29:29;;;;;;;3.55;3.30;;;;;;;33.94;33.28;100231.09;1786604;77;28331;-67
2021/06/20 10:31:58;;;;;;;3.77;3.47;;;;;;;34.12;33.40;100227.42;1763354;78;25852;-67
2021/06/20 10:34:32;;;;;;;4.20;3.62;;;;;;;34.41;32.79;100233.09;1738976;80;25585;-67
2021/06/20 10:37:04;;;;;;;4.12;3.80;;;;;;;34.53;32.80;100232.11;1786945;77;27108;-67
2021/06/20 10:39:31;;;;;;;5.08;3.65;;;;;;;34.53;32.11;100220.88;1780738;78;25593;-67
2021/06/20 10:42:10;;;;;;;6.17;3.67;;;;;;;34.56;31.88;100232.53;1765260;78;27494;-66
2021/06/20 10:44:53;;;;;;;6.08;3.30;;;;;;;34.54;32.40;100225.86;1761228;77;25577;-66
2021/06/20 10:47:35;;;;;;;5.03;4.20;;;;;;;34.72;32.83;100210.33;1772769;78;25626;-66
2021/06/20 10:50:07;;;;;;;4.22;3.90;;;;;;;35.17;31.87;100211.20;1779661;78;25627;-67
2021/06/20 10:52:34;;;;;;;6.12;4.90;;;;;;;35.31;31.32;100203.30;1769985;77;25560;-66
2021/06/20 10:55:12;;;;;;;5.10;3.72;;;;;;;35.50;31.26;100219.34;1761389;78;27841;-67
2021/06/20 10:57:51;;;;;;;4.23;3.90;;;;;;;35.50;31.28;100208.10;1786314;78;25767;-67
2021/06/20 11:00:37;;;;;;;4.80;3.87;;;;;;;35.66;31.57;100193.56;1783116;78;25280;-67
2021/06/20 11:03:29;;;;;;;4.47;4.08;;;;;;;35.99;31.56;100192.56;1776437;77;25603;-66
2021/06/20 11:05:59;;;;;;;4.97;4.47;;;;;;;36.20;31.03;100178.53;1780203;77;25753;-66
2021/06/20 11:08:30;;;;;;;6.87;4.17;;;;;;;36.40;30.13;100178.58;1779765;78;27291;-66
2021/06/20 11:11:14;;;;;;;7.00;4.17;;;;;;;36.26;29.70;100175.97;1790284;78;25861;-67
2021/06/20 11:13:58;;;;;;;4.75;4.28;;;;;;;36.01;30.49;100168.16;1754389;78;26520;-67
2021/06/20 11:16:43;;;;;;;4.97;4.47;;;;;;;36.18;30.49;100164.17;1722494;81;25767;-66
2021/06/20 11:19:20;;;;;;;8.65;4.00;;;;;;;36.16;30.51;100180.14;1781223;78;25842;-65
2021/06/20 11:21:59;;;;;;;5.30;4.03;;;;;;;36.09;30.10;100172.12;1771144;77;27239;-67
2021/06/20 11:24:35;;;;;;;4.33;3.90;;;;;;;35.77;30.06;100169.72;1791827;77;25825;-67
2021/06/20 11:27:06;;;;;;;6.45;4.20;;;;;;;35.64;30.62;100167.17;1775092;77;26417;-71
2021/06/20 11:29:45;;;;;;;4.00;3.70;;;;;;;35.68;30.96;100162.91;1790378;77;25915;-72
2021/06/20 11:32:22;;;;;;;4.90;4.40;;;;;;;35.91;31.50;100157.64;1749210;78;26147;-73
2021/06/20 11:34:55;;;;;;;7.65;4.30;;;;;;;36.30;31.34;100164.49;1754312;78;28890;-69
2021/06/20 11:37:26;;;;;;;4.65;3.98;;;;;;;36.44;30.18;100155.22;1768025;78;25523;-71
2021/06/20 11:40:03;;;;;;;5.97;4.37;;;;;;;36.42;30.49;100149.31;1776406;78;25827;-69
2021/06/20 11:42:35;;;;;;;6.15;4.08;;;;;;;36.52;29.03;100148.52;1793605;78;25796;-69
2021/06/20 11:45:09;;;;;;;5.87;4.03;;;;;;;36.25;29.36;100149.09;1785824;78;26551;-70
2021/06/20 11:47:46;;;;;;;5.78;4.30;;;;;;;36.01;29.32;100130.96;1750168;78;27445;-69
2021/06/20 11:50:27;;;;;;;6.95;3.98;;;;;;;35.88;29.97;100127.06;1777021;78;26190;-69
2021/06/20 11:53:06;;;;;;;7.12;3.70;;;;;;;35.88;29.84;100115.03;1781108;78;25755;-69
2021/06/20 11:55:47;;;;;;;4.55;4.08;;;;;;;35.82;29.80;100113.53;1729292;81;26111;-69
2021/06/20 11:58:14;;;;;;;4.92;3.72;;;;;;;35.77;30.18;100123.30;1758456;79;25532;-68
2021/06/20 12:00:44;;;;;;;4.25;3.90;;;;;;;35.68;30.35;100119.31;1758107;79;27258;-69
2021/06/20 12:03:17;;;;;;;4.62;3.52;;;;;;;35.64;30.23;100126.39;1766480;79;25636;-67
2021/06/20 12:05:49;;;;;;;7.08;4.22;;;;;;;35.63;30.79;100120.64;1744824;79;25856;-68
2021/06/20 12:08:16;;;;;;;8.35;3.85;;;;;;;35.67;30.29;100126.22;1765305;77;26330;-68
2021/06/20 12:10:46;;;;;;;4.65;3.47;;;;;;;35.45;30.14;100125.84;1779902;78;25886;-67
2021/06/20 12:13:14;;;;;;;8.83;3.80;;;;;;;35.39;30.73;100106.71;1791017;78;27336;-67
2021/06/20 12:15:42;;;;;;;7.50;3.90;;;;;;;35.45;31.12;100104.75;1778217;78;25866;-67
2021/06/20 12:18:12;;;;;;;5.92;3.80;;;;;;;35.67;31.02;100098.09;1770488;78;25843;-67
2021/06/20 12:20:47;;;;;;;8.63;4.37;;;;;;;35.87;30.76;100095.95;1786486;78;26118;-67
2021/06/20 12:23:26;;;;;;;7.20;3.35;;;;;;;35.70;30.12;100091.45;1759222;78;26179;-67
2021/06/20 12:25:54;;;;;;;8.10;3.55;;;;;;;35.54;29.97;100089.95;1787625;78;27855;-66
2021/06/20 12:28:21;;;;;;;6.75;3.77;;;;;;;35.27;30.35;100095.27;1727155;80;26163;-67
2021/06/20 12:30:51;;;;;;;9.40;3.95;;;;;;;35.15;30.68;100086.48;1757924;80;25708;-68
2021/06/20 12:33:21;;;;;;;4.97;4.00;;;;;;;35.27;30.76;100080.45;1784795;78;26240;-68
2021/06/20 12:36:00;;;;;;;5.33;4.00;;;;;;;35.36;30.89;100074.70;1783094;77;25735;-67
2021/06/20 12:38:29;;;;;;;9.95;3.62;;;;;;;35.36;30.89;100074.70;1777748;78;27933;-68
2021/06/20 12:40:57;;;;;;;7.97;3.58;;;;;;;35.33;30.67;100072.26;1780971;78;25467;-67
2021/06/20 12:43:25;;;;;;;5.40;3.53;;;;;;;35.24;30.70;100058.30;1786872;78;25853;-67
2021/06/20 12:46:09;;;;;;;7.17;3.05;;;;;;;35.15;30.41;100064.00;1781042;78;25718;-67
2021/06/20 12:48:41;;;;;;;8.15;3.30;;;;;;;35.04;30.12;100063.16;1767522;78;25913;-67
2021/06/20 12:51:11;;;;;;;5.87;3.15;;;;;;;35.09;30.27;100071.55;1766678;78;27491;-67
2021/06/20 12:53:43;;;;;;;8.98;3.10;;;;;;;35.07;30.54;100066.41;1783050;78;25933;-66
2021/06/20 12:56:23;;;;;;;7.47;3.77;;;;;;;35.08;30.82;100067.21;1769155;78;25740;-67
2021/06/20 12:58:58;;;;;;;8.35;3.30;;;;;;;35.06;30.18;100067.69;1778283;78;26560;-68
2021/06/20 13:01:25;;;;;;;7.10;2.90;;;;;;;34.88;30.45;100071.45;1775086;78;25705;-68
2021/06/20 13:03:52;;;;;;;9.18;3.47;;;;;;;34.84;30.45;100078.52;1793008;77;27308;-67
2021/06/20 13:06:21;;;;;;;8.75;3.87;;;;;;;34.92;30.50;100092.33;1749490;79;25719;-67
2021/06/20 13:08:47;;;;;;;7.10;3.20;;;;;;;34.78;30.62;100071.40;1775309;78;26194;-67
2021/06/20 13:11:14;;;;;;;5.40;3.62;;;;;;;34.81;30.90;100075.29;1779197;78;26764;-67
2021/06/20 13:13:41;;;;;;;6.53;3.67;;;;;;;34.71;31.02;100065.53;1776211;78;26441;-67
2021/06/20 13:16:07;;;;;;;5.83;3.58;;;;;;;34.79;30.92;100047.68;1788887;77;27313;-68
2021/06/20 13:18:34;;;;;;;4.65;3.60;;;;;;;34.88;30.65;100058.05;1778633;78;25695;-66
2021/06/20 13:21:00;;;;;;;6.00;3.50;;;;;;;34.75;30.77;100061.92;1771163;78;26741;-65
2021/06/20 13:23:26;;;;;;;5.10;3.58;;;;;;;34.61;31.12;100064.80;1782678;78;26424;-66
2021/06/20 13:25:53;;;;;;;6.58;3.40;;;;;;;34.73;31.19;100067.86;1786243;78;26166;-67
2021/06/20 13:28:20;;;;;;;5.08;3.55;;;;;;;34.79;31.63;100048.45;1778904;78;27341;-66
2021/06/20 13:30:47;;;;;;;6.33;3.50;;;;;;;35.03;30.12;100061.63;1774128;77;25784;-66
2021/06/20 13:33:13;;;;;;;4.90;3.33;;;;;;;35.03;30.12;100061.63;1788235;77;25850;-66
2021/06/20 13:35:40;;;;;;;4.55;3.55;;;;;;;34.75;30.42;100053.49;1729418;80;26228;-66
2021/06/20 13:38:06;;;;;;;5.40;3.15;;;;;;;34.77;31.16;100052.98;1785644;78;25892;-66
2021/06/20 13:40:33;;;;;;;4.78;3.05;;;;;;;34.77;31.16;100052.98;1778139;78;28179;-66
2021/06/20 13:42:59;;;;;;;6.33;2.70;;;;;;;34.81;30.97;100042.34;1772818;77;26117;-66
2021/06/20 13:45:26;;;;;;;6.20;3.55;;;;;;;34.95;30.74;100054.84;1779593;78;26089;-65
2021/06/20 13:47:53;;;;;;;5.78;3.17;;;;;;;34.95;30.74;100054.84;1764418;79;26663;-66
2021/06/20 13:50:21;;;;;;;3.83;3.30;;;;;;;34.83;30.53;100052.47;1760900;78;25858;-66
2021/06/20 13:52:48;;;;;;;9.60;3.65;;;;;;;34.63;30.59;100044.66;1751027;78;27983;-67
2021/06/20 13:55:19;;;;;;;7.67;3.35;;;;;;;34.62;30.69;100047.34;1775340;78;26399;-66
2021/06/20 13:57:46;;;;;;;9.58;3.50;;;;;;;34.71;31.19;100046.48;1764592;77;26211;-67
2021/06/20 14:00:17;;;;;;;10.32;3.67;;;;;;;34.86;31.06;100043.08;1773652;78;26179;-66
2021/06/20 14:02:43;;;;;;;9.13;3.40;;;;;;;34.89;31.05;100042.11;1764030;78;26447;-66
2021/06/20 14:05:11;;;;;;;6.55;3.40;;;;;;;34.91;30.86;100033.20;1788631;77;27316;-67
2021/06/20 14:07:37;;;;;;;8.60;4.12;;;;;;;34.91;30.85;100033.97;1750380;78;25595;-66
2021/06/20 14:10:07;;;;;;;4.60;2.95;;;;;;;34.89;30.89;100024.46;1779179;78;25526;-66
2021/06/20 14:12:35;;;;;;;9.70;3.40;;;;;;;34.86;30.23;100036.69;1781687;78;25874;-67
2021/06/20 14:15:01;;;;;;;5.00;3.20;;;;;;;34.72;30.76;100036.20;1790428;78;25729;-67
2021/06/20 14:17:28;;;;;;;6.90;3.90;;;;;;;34.72;31.28;100026.37;1768799;78;27356;-66
2021/06/20 14:19:54;;;;;;;4.17;3.30;;;;;;;34.76;31.30;100021.95;1721349;81;27361;-66
2021/06/20 14:22:21;;;;;;;4.83;3.80;;;;;;;34.74;31.56;100024.48;1776653;77;25849;-67
2021/06/20 14:24:49;;;;;;;5.75;4.00;;;;;;;34.88;31.65;100024.34;1716081;80;26539;-65
2021/06/20 14:31:15;;;;;;;10.58;3.55;;;;;;;34.65;31.07;100011.89;1775194;78;27419;-66
2021/06/20 14:33:41;;;;;;;4.45;3.60;;;;;;;34.37;31.58;100026.95;1786361;78;25791;-65
2021/06/20 14:36:08;;;;;;;6.62;4.00;;;;;;;34.18;31.96;100011.50;1778656;78;25901;-66
2021/06/20 14:38:35;;;;;;;9.78;3.83;;;;;;;34.08;32.29;100020.61;1775794;78;25813;-66
2021/06/20 14:41:02;;;;;;;7.42;4.00;;;;;;;34.08;32.29;100020.61;1752516;78;26581;-66
2021/06/20 14:43:30;;;;;;;10.32;4.58;;;;;;;34.00;32.23;100016.01;1772533;78;27300;-66
2021/06/20 14:45:57;;;;;;;7.22;3.27;;;;;;;33.98;32.38;100018.49;1773174;78;27114;-65
2021/06/20 14:48:24;;;;;;;8.43;3.75;;;;;;;33.94;32.13;100013.70;1787081;78;25808;-66
2021/06/20 14:50:51;;;;;;;7.15;3.47;;;;;;;33.75;31.91;100028.47;1748690;79;26235;-68
2021/06/20 14:53:18;;;;;;;6.37;3.72;;;;;;;33.53;31.89;100014.70;1749634;79;26488;-66
2021/06/20 14:55:46;;;;;;;4.67;3.60;;;;;;;33.48;31.91;100037.14;1753986;79;27454;-65
2021/06/20 14:58:13;;;;;;;6.17;3.92;;;;;;;33.48;31.91;100037.14;1781074;78;25931;-64
2021/06/20 15:00:43;;;;;;;4.15;3.50;;;;;;;33.20;32.47;100004.88;1777856;78;26389;-66
2021/06/20 15:03:08;;;;;;;6.72;4.25;;;;;;;33.19;32.78;100000.53;1739739;80;25827;-66
2021/06/20 15:05:34;;;;;;;4.78;4.08;;;;;;;33.09;33.38;99997.72;1756555;79;26700;-66
2021/06/20 15:08:01;;;;;;;4.42;4.00;;;;;;;33.09;33.38;99997.72;1737787;80;28774;-66
2021/06/20 15:10:27;;;;;;;8.93;4.00;;;;;;;32.98;33.63;99998.06;1740464;80;26045;-66
2021/06/20 15:12:54;;;;;;;6.20;3.87;;;;;;;32.93;34.10;100003.67;1742727;79;26354;-66
2021/06/20 15:15:20;;;;;;;8.95;4.22;;;;;;;32.92;34.24;100012.70;1720389;81;26033;-66
2021/06/20 15:17:47;;;;;;;5.00;4.08;;;;;;;32.84;34.28;100002.31;1731865;80;25699;-67
2021/06/20 15:20:13;;;;;;;5.22;4.00;;;;;;;32.71;34.09;100006.08;1785597;78;28018;-66
2021/06/20 15:22:40;;;;;;;4.15;3.65;;;;;;;32.50;34.26;100008.39;1787430;78;25745;-67
2021/06/20 15:25:08;;;;;;;5.58;3.55;;;;;;;32.37;33.88;100012.14;1772677;78;25866;-66
2021/06/20 15:27:36;;;;;;;4.17;3.80;;;;;;;32.24;33.95;100002.34;1787649;78;25860;-66
2021/06/20 15:30:08;;;;;;;3.58;3.22;;;;;;;32.20;34.29;100000.48;1784924;78;25690;-66
2021/06/20 15:32:52;;;;;;;9.25;3.65;;;;;;;32.25;34.33;100002.48;1687556;81;27282;-76
2021/06/20 15:35:25;;;;;;;6.00;3.50;;;;;;;32.18;34.15;100000.77;1570877;88;25891;-76
2021/06/20 15:37:59;;;;;;;5.70;3.52;;;;;;;32.03;34.01;100003.40;1570371;88;25890;-76
2021/06/20 15:40:28;;;;;;;7.15;3.92;;;;;;;31.90;34.26;100002.13;1577101;87;26499;-75
2021/06/20 15:42:57;;;;;;;6.67;3.83;;;;;;;31.83;34.43;100003.83;1567314;88;26507;-72
2021/06/20 15:45:26;;;;;;;6.75;3.83;;;;;;;31.71;34.54;100005.52;1622310;84;27339;-74
2021/06/20 15:47:56;;;;;;;4.20;3.17;;;;;;;31.70;34.85;100003.94;1615053;85;26607;-75
2021/06/20 15:50:28;;;;;;;6.30;3.37;;;;;;;31.67;34.76;100000.70;1598330;86;26405;-75
2021/06/20 15:52:55;;;;;;;3.98;3.25;;;;;;;31.67;34.92;99997.11;1594459;85;25924;-76
2021/06/20 15:55:24;;;;;;;8.55;2.98;;;;;;;31.72;35.01;99999.29;1609061;85;26752;-73
2021/06/20 15:57:52;;;;;;;4.67;3.17;;;;;;;31.71;34.55;100004.11;1601257;86;27331;-72
2021/06/20 16:00:22;;;;;;;3.95;2.95;;;;;;;31.63;34.31;99999.42;1623963;85;26635;-72
2021/06/20 16:02:49;;;;;;;6.97;3.10;;;;;;;31.58;34.28;100017.42;1600292;86;25977;-75
2021/06/20 16:05:17;;;;;;;3.45;2.77;;;;;;;31.48;33.94;100001.20;1613386;86;26181;-73
2021/06/20 16:07:45;;;;;;;;;;;;;;;31.40;34.20;100001.36;1611313;85;25911;-72
2021/06/20 16:10:13;;;;;;;4.17;3.27;;;;;;;31.32;34.38;99998.05;1610472;85;27214;-71
2021/06/20 16:12:41;;;;;;;6.85;3.60;;;;;;;31.21;34.40;99998.48;1698336;78;26055;-70
2021/06/20 16:15:10;;;;;;;6.78;3.47;;;;;;;31.13;34.50;100000.63;1778488;78;26232;-70
2021/06/20 16:17:37;;;;;;;3.92;3.25;;;;;;;31.07;34.71;99999.02;1758600;79;25845;-73
2021/06/20 16:20:07;;;;;;;4.15;3.00;;;;;;;31.03;34.64;99994.98;1775478;78;25910;-70
2021/06/20 16:22:34;;;;;;;8.50;3.27;;;;;;;30.98;34.82;99987.82;1729045;80;27320;-70
2021/06/20 16:25:02;;;;;;;6.12;3.87;;;;;;;30.94;34.92;99989.95;1746347;79;25733;-71
2021/06/20 16:27:29;;;;;;;6.58;3.20;;;;;;;30.87;35.03;99986.78;1782099;78;27053;-71
2021/06/20 16:29:55;;;;;;;5.28;3.65;;;;;;;30.83;35.28;99982.73;1770006;78;25747;-72
2021/06/20 16:32:22;;;;;;;6.75;3.50;;;;;;;30.72;35.65;99981.75;1777350;77;25885;-77
2021/06/20 16:34:49;;;;;;;9.45;4.10;;;;;;;30.69;36.01;99984.05;1787954;78;27314;-72
2021/06/20 16:37:19;;;;;;;7.08;3.60;;;;;;;30.62;36.42;99978.73;1773654;78;26750;-75
2021/06/20 16:39:48;;;;;;;7.35;3.65;;;;;;;30.55;36.66;99974.81;1784303;78;25867;-72
2021/06/20 16:42:17;;;;;;;;;;;;;;;30.50;36.77;99981.75;1785621;77;25841;-73
2021/06/20 16:44:44;;;;;;;;;;;;;;;30.44;37.06;99977.98;1740681;80;26054;-77
2021/06/20 16:47:12;;;;;;;5.78;3.62;;;;;;;30.39;37.09;99987.55;1771618;77;27345;-77
2021/06/20 16:49:39;;;;;;;4.12;3.47;;;;;;;30.30;37.13;99975.06;1787343;77;25873;-75
2021/06/20 16:52:06;;;;;;;5.65;3.70;;;;;;;30.27;37.14;99977.36;1793011;78;25839;-73
2021/06/20 16:54:33;;;;;;;7.20;3.42;;;;;;;30.25;37.21;99970.69;1759411;77;25732;-74
2021/06/20 16:57:00;;;;;;;9.35;3.85;;;;;;;30.23;37.30;99977.34;1767060;77;26557;-73
2021/06/20 16:59:27;;;;;;;6.65;3.52;;;;;;;30.17;37.04;99970.14;1784940;78;27320;-73
2021/06/20 17:01:53;;;;;;;4.97;3.55;;;;;;;30.11;37.10;99959.42;1773780;78;25771;-73
2021/06/20 17:04:20;;;;;;;5.58;4.10;;;;;;;30.06;37.27;99964.95;1755305;78;25784;-70
2021/06/20 17:06:47;;;;;;;4.35;3.95;;;;;;;30.01;37.42;99961.97;1778690;78;27732;-71
2021/06/20 17:09:13;;;;;;;5.40;4.17;;;;;;;29.96;37.62;99961.92;1775560;78;25969;-70
2021/06/20 17:11:40;;;;;;;10.50;3.83;;;;;;;29.96;37.84;99968.89;1777497;78;27302;-78
2021/06/20 17:14:07;;;;;;;8.15;3.80;;;;;;;29.95;37.91;99968.12;1789948;77;25687;-71
2021/06/20 17:16:33;;;;;;;5.15;3.75;;;;;;;29.91;37.92;99973.02;1780698;78;25803;-74
2021/06/20 17:19:00;;;;;;;5.53;3.95;;;;;;;29.90;38.06;99974.27;1786118;77;25863;-84
2021/06/20 17:21:27;;;;;;;6.70;3.85;;;;;;;29.89;38.09;99978.27;1774014;78;25875;-75
2021/06/20 17:23:53;;;;;;;7.47;3.65;;;;;;;29.85;37.96;99976.82;1788857;78;27379;-73
2021/06/20 17:26:20;;;;;;;4.60;3.42;;;;;;;29.82;37.98;99972.17;1754223;80;27174;-74
2021/06/20 17:28:49;;;;;;;7.37;3.92;;;;;;;29.75;37.86;99963.41;1747106;79;25879;-76
2021/06/20 17:31:17;;;;;;;7.62;4.35;;;;;;;29.73;37.95;99964.44;1724900;81;26175;-70
2021/06/20 17:33:44;;;;;;;9.30;3.97;;;;;;;29.70;38.19;99966.13;1724958;80;25696;-74
2021/06/20 17:36:12;;;;;;;5.40;4.55;;;;;;;29.68;38.22;99967.20;1751486;80;27423;-71
2021/06/20 17:38:39;;;;;;;6.83;6.12;;;;;;;29.67;38.39;99966.25;1740571;79;25799;-76
2021/06/20 17:41:05;;;;;;;6.35;4.33;;;;;;;29.65;38.48;99965.93;1717684;81;26356;-71
2021/06/20 17:43:32;;;;;;;5.17;3.85;;;;;;;29.62;38.56;99964.80;1728025;81;26284;-71
2021/06/20 17:45:58;;;;;;;12.00;4.40;;;;;;;29.56;38.49;99961.81;1782996;78;25711;-70
2021/06/20 17:48:25;;;;;;;6.00;4.42;;;;;;;29.53;38.67;99959.92;1776638;77;27891;-73
2021/06/20 17:50:51;;;;;;;9.13;4.75;;;;;;;29.49;38.80;99961.25;1780693;78;25819;-74
2021/06/20 17:53:18;;;;;;;9.53;6.58;;;;;;;29.43;38.94;99950.67;1722030;80;26696;-73
2021/06/20 17:55:46;;;;;;;13.58;7.75;;;;;;;29.39;39.19;99945.07;1735899;79;25725;-72
2021/06/20 17:58:16;;;;;;;12.60;8.95;;;;;;;29.36;39.34;99940.39;1719732;80;25781;-73
2021/06/20 18:00:42;;;;;;;10.78;7.60;;;;;;;29.30;39.59;99931.02;1750782;79;29512;-71
2021/06/20 18:03:09;;;;;;;13.68;7.50;;;;;;;29.25;39.69;99939.31;1728554;80;25633;-64
2021/06/20 18:05:36;;;;;;;9.05;5.85;;;;;;;29.22;39.84;99938.84;1740280;80;26448;-64
2021/06/20 18:08:04;;;;;;;11.50;6.83;;;;;;;29.16;39.97;99937.20;1753709;79;26387;-66
2021/06/20 18:10:31;;;;;;;9.58;6.92;;;;;;;29.12;40.29;99940.70;1751919;79;26101;-64
2021/06/20 18:12:57;;;;;;;10.48;6.25;;;;;;;29.06;40.39;99939.09;1775677;78;28041;-63
2021/06/20 18:15:24;;;;;;;10.82;6.37;;;;;;;29.01;40.57;99927.71;1789312;77;25832;-65
2021/06/20 18:17:52;;;;;;;16.32;7.58;;;;;;;28.97;40.68;99927.82;1765306;78;25852;-64
2021/06/20 18:20:19;;;;;;;13.50;9.95;;;;;;;28.92;41.03;99927.61;1753474;79;25929;-66
2021/06/20 18:22:46;;;;;;;11.15;8.63;;;;;;;28.87;41.15;99928.31;1766511;78;26795;-64
2021/06/20 18:25:14;;;;;;;11.90;7.95;;;;;;;28.84;41.25;99929.81;1764692;77;27392;-64
2021/06/20 18:27:41;;;;;;;10.05;6.53;;;;;;;28.79;41.41;99926.19;1755546;78;25847;-63
2021/06/20 18:30:11;;;;;;;8.03;6.03;;;;;;;28.72;41.69;99929.19;1783579;77;25886;-64
2021/06/20 18:33:22;;;;;;;6.87;5.33;;;;;;;28.63;41.84;99924.28;1768867;78;25801;-65
2021/06/20 18:36:05;;;;;;;8.35;5.12;;;;;;;28.55;42.26;99934.82;1765118;78;25450;-64
2021/06/20 18:38:31;;;;;;;10.05;6.22;;;;;;;28.42;42.44;99934.77;1782028;78;27336;-65
2021/06/20 18:40:58;;;;;;;14.03;6.25;;;;;;;28.32;43.02;99935.23;1763812;79;26439;-64
2021/06/20 18:43:24;;;;;;;7.42;5.72;;;;;;;28.23;43.34;99936.49;1749950;79;25793;-63
2021/06/20 18:45:51;;;;;;;11.43;6.40;;;;;;;28.15;43.63;99935.73;1724396;80;26068;-63
2021/06/20 18:48:18;;;;;;;10.28;5.40;;;;;;;28.04;44.25;99932.61;1788505;77;25900;-64
2021/06/20 18:50:45;;;;;;;12.88;6.60;;;;;;;27.94;44.38;99930.89;1776062;77;27344;-64
2021/06/20 18:53:13;;;;;;;10.90;6.17;;;;;;;27.85;44.49;99932.88;1777468;78;26575;-64
2021/06/20 18:55:40;;;;;;;14.33;6.40;;;;;;;27.77;44.92;99938.47;1775864;78;26910;-64
2021/06/20 18:58:06;;;;;;;12.07;6.70;;;;;;;27.68;45.22;99934.89;1777534;77;26418;-64
2021/06/20 19:00:33;;;;;;;17.80;9.68;;;;;;;27.61;45.42;99934.31;1762924;78;25759;-64
2021/06/20 19:03:00;;;;;;;17.45;8.25;;;;;;;27.53;45.59;99930.91;1772601;78;27278;-64
2021/06/20 19:05:27;;;;;;;14.63;6.40;;;;;;;27.44;45.78;99926.59;1774360;78;26003;-64
2021/06/20 19:07:55;;;;;;;7.45;6.03;;;;;;;27.36;46.02;99919.02;1767791;77;25830;-64
2021/06/20 19:10:23;;;;;;;8.63;5.57;;;;;;;27.31;46.43;99929.25;1779678;78;25688;-64
2021/06/20 19:12:55;;;;;;;8.80;5.57;;;;;;;27.21;46.88;99924.89;1780629;78;26599;-63
2021/06/20 19:15:25;;;;;;;16.60;5.87;;;;;;;27.10;47.04;99918.80;1777206;78;27445;-63
2021/06/20 19:17:53;;;;;;;10.63;5.37;;;;;;;27.02;47.33;99915.42;1744376;80;26562;-67
2021/06/20 19:20:25;;;;;;;10.30;6.30;;;;;;;26.96;47.40;99917.74;1771209;78;26710;-69
2021/06/20 19:22:55;;;;;;;11.03;5.87;;;;;;;26.89;47.61;99920.07;1782212;78;25744;-69
2021/06/20 19:25:23;;;;;;;11.48;6.03;;;;;;;26.82;47.77;99916.07;1771669;78;26586;-68
2021/06/20 19:27:50;;;;;;;9.15;5.50;;;;;;;26.77;47.94;99920.13;1765027;79;27373;-68
2021/06/20 19:30:20;;;;;;;8.18;5.55;;;;;;;26.71;48.09;99921.83;1782991;78;25816;-67
2021/06/20 19:32:47;;;;;;;8.70;5.65;;;;;;;26.67;48.22;99923.13;1752487;78;25979;-67
2021/06/20 19:35:14;;;;;;;9.83;6.72;;;;;;;26.62;48.47;99922.99;1788460;78;25721;-68
2021/06/20 19:37:42;;;;;;;18.48;11.78;;;;;;;26.59;48.49;99919.69;1774060;77;26199;-69
2021/06/20 19:40:10;;;;;;;;;;;;;;;26.55;48.65;99922.53;1777797;78;28521;-69
2021/06/20 19:42:37;;;;;;;12.10;5.72;;;;;;;26.50;49.04;99916.10;1782393;77;25856;-69
2021/06/20 19:45:07;;;;;;;10.45;6.35;;;;;;;26.40;48.91;99916.48;1752653;79;25801;-69
2021/06/20 19:47:34;;;;;;;9.33;6.08;;;;;;;26.35;49.34;99909.28;1765480;78;26050;-66
2021/06/20 19:50:01;;;;;;;9.05;5.72;;;;;;;26.28;49.33;99917.91;1779197;77;25895;-67
2021/06/20 19:52:28;;;;;;;9.20;5.92;;;;;;;26.23;49.63;99913.47;1783176;78;29646;-67
2021/06/20 19:55:07;;;;;;;9.93;6.30;;;;;;;26.17;49.71;99912.39;1781060;78;25899;-68
2021/06/20 19:57:40;;;;;;;;;;;;;;;26.14;49.70;99922.34;1783552;78;26478;-68
2021/06/20 20:00:18;;;;;;;8.43;5.87;;;;;;;26.12;50.12;99926.73;1786807;77;25927;-70
2021/06/20 20:02:46;;;;;;;9.20;6.70;;;;;;;26.04;49.95;99932.42;1785741;78;25828;-69
2021/06/20 20:05:14;;;;;;;10.28;6.42;;;;;;;26.00;50.14;99933.09;1784097;78;27324;-68
2021/06/20 20:07:44;;;;;;;14.30;8.50;;;;;;;25.97;50.22;99939.48;1777328;77;26022;-68
2021/06/20 20:10:15;;;;;;;11.55;6.83;;;;;;;25.94;50.66;99947.22;1782440;78;25927;-68
2021/06/20 20:12:43;;;;;;;11.73;7.22;;;;;;;25.88;50.45;99947.51;1793648;78;25904;-67
2021/06/20 20:15:14;;;;;;;9.80;7.15;;;;;;;25.83;50.86;99951.56;1778578;78;26374;-67
2021/06/20 20:17:41;;;;;;;12.98;6.30;;;;;;;25.79;50.82;99952.22;1725822;80;27571;-66
2021/06/20 20:20:11;;;;;;;9.38;6.90;;;;;;;25.77;51.04;99959.39;1745200;79;25833;-66
2021/06/20 20:22:38;;;;;;;8.25;7.30;;;;;;;25.73;51.00;99959.45;1787858;78;25937;-67
2021/06/20 20:25:08;;;;;;;12.75;7.40;;;;;;;25.68;51.45;99963.48;1780783;77;25849;-67
2021/06/20 20:27:35;;;;;;;;;;;;;;;25.63;51.31;99963.95;1782164;77;26128;-64
2021/06/20 20:30:02;;;;;;;10.72;6.83;;;;;;;25.60;51.97;99964.02;1766854;78;28075;-65
2021/06/20 20:32:29;;;;;;;9.50;7.12;;;;;;;25.54;51.83;99975.56;1764689;78;26223;-69
2021/06/20 20:34:56;;;;;;;10.35;7.30;;;;;;;25.50;51.87;99964.36;1784216;77;25750;-67
2021/06/20 20:37:22;;;;;;;10.75;7.05;;;;;;;25.47;52.00;99969.34;1774164;78;26123;-67
2021/06/20 20:39:49;;;;;;;8.28;7.05;;;;;;;25.45;52.10;99974.52;1757577;78;25957;-66
2021/06/20 20:42:16;;;;;;;13.98;7.00;;;;;;;25.42;52.18;99979.50;1786582;78;25804;-65
2021/06/20 20:44:42;;;;;;;9.08;7.22;;;;;;;25.38;52.26;99979.56;1757779;80;25696;-68
2021/06/20 20:47:09;;;;;;;10.95;7.50;;;;;;;25.34;52.35;99986.53;1772033;79;25752;-67
2021/06/20 20:49:35;;;;;;;12.45;7.65;;;;;;;25.33;52.43;99985.56;1710750;81;26731;-66
2021/06/20 20:52:04;;;;;;;14.07;7.25;;;;;;;25.29;52.53;99982.08;1748974;80;26038;-66
2021/06/20 20:54:32;;;;;;;11.10;7.80;;;;;;;25.25;52.49;99986.25;1764110;79;27324;-66
2021/06/20 20:56:58;;;;;;;10.60;8.40;;;;;;;25.20;52.55;99988.11;1792533;78;25840;-65